sensor_id;sensor_type;location;lat;lon;timestamp;pressure;altitude;pressure_sealevel;temperature;humidity
59859;BME280;45734;53.648;9.566;2023-04-20T00:03:37;96202.78;;;-145.06;65.59
59859;BME280;45734;53.648;9.566;2023-04-20T00:08:38;96260.09;;;-145.06;68.17
59859;BME280;45734;53.648;9.566;2023-04-20T00:13:38;96237.59;;;-145.06;65.57
59859;BME280;45734;53.648;9.566;2023-04-20T00:18:38;96186.41;;;-145.06;63.12
59859;BME280;45734;53.648;9.566;2023-04-20T00:23:40;96182.31;;;-145.06;61.74
59859;BME280;45734;53.648;9.566;2023-04-20T00:28:40;96094.31;;;-145.06;60.03
59859;BME280;45734;53.648;9.566;2023-04-20T00:33:40;96139.34;;;-145.06;59.66
59859;BME280;45734;53.648;9.566;2023-04-20T00:38:41;96122.97;;;-145.06;58.25
59859;BME280;45734;53.648;9.566;2023-04-20T00:43:53;96088.19;;;-145.06;56.20
59859;BME280;45734;53.648;9.566;2023-04-20T00:48:55;96065.66;;;-145.06;54.90
59859;BME280;45734;53.648;9.566;2023-04-20T00:53:55;96051.34;;;-145.06;53.58
59859;BME280;45734;53.648;9.566;2023-04-20T00:58:56;96143.44;;;-145.06;54.33
59859;BME280;45734;53.648;9.566;2023-04-20T01:03:57;96049.28;;;-145.06;54.86
59859;BME280;45734;53.648;9.566;2023-04-20T01:08:57;96135.25;;;-145.06;58.00
59859;BME280;45734;53.648;9.566;2023-04-20T01:13:57;96165.94;;;-145.06;58.98
59859;BME280;45734;53.648;9.566;2023-04-20T01:18:58;96161.84;;;-145.06;61.71
59859;BME280;45734;53.648;9.566;2023-04-20T01:23:58;96194.59;;;-145.06;61.91
59859;BME280;45734;53.648;9.566;2023-04-20T01:28:58;96151.63;;;-145.06;59.57
59859;BME280;45734;53.648;9.566;2023-04-20T01:33:59;96149.56;;;-145.06;60.67
59859;BME280;45734;53.648;9.566;2023-04-20T01:38:59;96180.28;;;-145.06;63.86
59859;BME280;45734;53.648;9.566;2023-04-20T01:43:59;96249.88;;;-145.06;67.45
59859;BME280;45734;53.648;9.566;2023-04-20T01:49:00;96264.19;;;-145.06;74.06
59859;BME280;45734;53.648;9.566;2023-04-20T01:54:00;96288.75;;;-145.06;71.47
59859;BME280;45734;53.648;9.566;2023-04-20T01:59:01;96251.91;;;-145.06;68.36
59859;BME280;45734;53.648;9.566;2023-04-20T02:04:01;96227.34;;;-145.06;67.34
59859;BME280;45734;53.648;9.566;2023-04-20T02:09:02;96284.66;;;-145.06;69.46
59859;BME280;45734;53.648;9.566;2023-04-20T02:14:02;96292.84;;;-145.06;71.80
59859;BME280;45734;53.648;9.566;2023-04-20T02:19:02;96292.84;;;-145.06;70.44
59859;BME280;45734;53.648;9.566;2023-04-20T02:24:03;96432.03;;;-145.06;91.43
59859;BME280;45734;53.648;9.566;2023-04-20T02:29:03;96520.03;;;-145.06;100.00
59859;BME280;45734;53.648;9.566;2023-04-20T02:34:04;96548.69;;;-145.06;100.00
59859;BME280;45734;53.648;9.566;2023-04-20T02:39:05;96777.94;;;-145.06;100.00
59859;BME280;45734;53.648;9.566;2023-04-20T02:44:05;96859.81;;;-145.06;100.00
59859;BME280;45734;53.648;9.566;2023-04-20T02:49:06;96784.09;;;-145.06;100.00
59859;BME280;45734;53.648;9.566;2023-04-20T02:54:07;96822.97;;;-145.06;100.00
59859;BME280;45734;53.648;9.566;2023-04-20T02:59:07;96911.00;;;-145.06;100.00
59859;BME280;45734;53.648;9.566;2023-04-20T03:04:07;96890.53;;;-145.06;100.00
59859;BME280;45734;53.648;9.566;2023-04-20T03:09:07;96792.28;;;-145.06;100.00
59859;BME280;45734;53.648;9.566;2023-04-20T03:14:08;96878.25;;;-145.06;100.00
59859;BME280;45734;53.648;9.566;2023-04-20T03:19:08;96882.34;;;-145.06;100.00
59859;BME280;45734;53.648;9.566;2023-04-20T03:24:09;96939.66;;;-145.06;100.00
59859;BME280;45734;53.648;9.566;2023-04-20T03:29:09;96900.75;;;-145.06;100.00
59859;BME280;45734;53.648;9.566;2023-04-20T03:34:12;96857.78;;;-145.06;100.00
59859;BME280;45734;53.648;9.566;2023-04-20T03:39:14;96999.03;;;-145.06;100.00
59859;BME280;45734;53.648;9.566;2023-04-20T03:44:14;97062.47;;;-145.06;100.00
59859;BME280;45734;53.648;9.566;2023-04-20T03:49:15;96904.84;;;-145.06;100.00
59859;BME280;45734;53.648;9.566;2023-04-20T03:54:16;97033.81;;;-145.06;100.00
59859;BME280;45734;53.648;9.566;2023-04-20T03:59:16;97005.16;;;-145.06;100.00
59859;BME280;45734;53.648;9.566;2023-04-20T04:04:16;97017.44;;;-145.06;100.00
59859;BME280;45734;53.648;9.566;2023-04-20T04:09:17;97060.44;;;-145.06;100.00
59859;BME280;45734;53.648;9.566;2023-04-20T04:14:17;97056.34;;;-145.06;100.00
59859;BME280;45734;53.648;9.566;2023-04-20T04:19:17;97191.44;;;-145.06;100.00
59859;BME280;45734;53.648;9.566;2023-04-20T04:24:17;97152.56;;;-145.06;100.00
59859;BME280;45734;53.648;9.566;2023-04-20T04:29:18;97113.66;;;-145.06;100.00
59859;BME280;45734;53.648;9.566;2023-04-20T04:34:22;97097.28;;;-145.06;100.00
59859;BME280;45734;53.648;9.566;2023-04-20T04:39:23;97199.63;;;-145.06;100.00
59859;BME280;45734;53.648;9.566;2023-04-20T04:44:23;97189.41;;;-145.06;100.00
59859;BME280;45734;53.648;9.566;2023-04-20T04:49:25;97195.53;;;-145.06;100.00
59859;BME280;45734;53.648;9.566;2023-04-20T04:54:25;97242.63;;;-145.06;100.00
59859;BME280;45734;53.648;9.566;2023-04-20T04:59:25;97234.44;;;-145.06;100.00
59859;BME280;45734;53.648;9.566;2023-04-20T05:04:26;97173.03;;;-145.06;100.00
59859;BME280;45734;53.648;9.566;2023-04-20T05:09:26;97156.66;;;-145.06;100.00
59859;BME280;45734;53.648;9.566;2023-04-20T05:14:32;97105.47;;;-145.06;100.00
59859;BME280;45734;53.648;9.566;2023-04-20T05:19:33;97070.66;;;-145.06;100.00
59859;BME280;45734;53.648;9.566;2023-04-20T05:24:33;97058.38;;;-145.06;100.00
59859;BME280;45734;53.648;9.566;2023-04-20T05:29:34;97064.53;;;-145.06;100.00
59859;BME280;45734;53.648;9.566;2023-04-20T05:34:34;96640.81;;;-145.06;100.00
59859;BME280;45734;53.648;9.566;2023-04-20T05:39:34;97064.53;;;-145.06;100.00
59859;BME280;45734;53.648;9.566;2023-04-20T05:44:35;97062.47;;;-145.06;100.00
59859;BME280;45734;53.648;9.566;2023-04-20T05:49:35;97074.75;;;-145.06;100.00
59859;BME280;45734;53.648;9.566;2023-04-20T05:54:35;97052.25;;;-145.06;100.00
59859;BME280;45734;53.648;9.566;2023-04-20T05:59:36;97048.16;;;-145.06;100.00
59859;BME280;45734;53.648;9.566;2023-04-20T06:04:37;97072.72;;;-145.06;100.00
59859;BME280;45734;53.648;9.566;2023-04-20T06:09:37;97062.47;;;-145.06;100.00
59859;BME280;45734;53.648;9.566;2023-04-20T06:14:37;97132.09;;;-145.06;100.00
59859;BME280;45734;53.648;9.566;2023-04-20T06:19:37;97087.03;;;-145.06;100.00
59859;BME280;45734;53.648;9.566;2023-04-20T06:24:38;97085.00;;;-145.06;100.00
59859;BME280;45734;53.648;9.566;2023-04-20T06:29:41;97119.81;;;-145.06;100.00
59859;BME280;45734;53.648;9.566;2023-04-20T06:34:41;102337.22;;;-145.06;100.00
59859;BME280;45734;53.648;9.566;2023-04-20T06:39:42;97562.00;;;-145.06;100.00
59859;BME280;45734;53.648;9.566;2023-04-20T06:44:42;97334.75;;;-145.06;100.00
59859;BME280;45734;53.648;9.566;2023-04-20T06:49:42;97285.63;;;-145.06;100.00
59859;BME280;45734;53.648;9.566;2023-04-20T06:54:43;97277.44;;;-145.06;100.00
59859;BME280;45734;53.648;9.566;2023-04-20T06:59:43;96217.13;;;-145.06;100.00
59859;BME280;45734;53.648;9.566;2023-04-20T07:04:43;96118.88;;;-145.06;100.00
59859;BME280;45734;53.648;9.566;2023-04-20T07:09:44;97230.34;;;-145.06;100.00
59859;BME280;45734;53.648;9.566;2023-04-20T07:14:44;97211.94;;;-145.06;100.00
59859;BME280;45734;53.648;9.566;2023-04-20T07:19:44;96186.41;;;-145.06;100.00
59859;BME280;45734;53.648;9.566;2023-04-20T07:24:44;96440.22;;;-145.06;100.00
59859;BME280;45734;53.648;9.566;2023-04-20T07:29:45;96168.00;;;-145.06;100.00
59859;BME280;45734;53.648;9.566;2023-04-20T07:34:45;96253.94;;;-145.06;100.00
59859;BME280;45734;53.648;9.566;2023-04-20T07:39:46;96626.47;;;-145.06;100.00
59859;BME280;45734;53.648;9.566;2023-04-20T07:44:46;96603.94;;;-145.06;100.00
59859;BME280;45734;53.648;9.566;2023-04-20T07:49:47;96247.81;;;-145.06;100.00
59859;BME280;45734;53.648;9.566;2023-04-20T07:54:47;96825.03;;;-145.06;100.00
59859;BME280;45734;53.648;9.566;2023-04-20T07:59:47;97089.09;;;-145.06;100.00
59859;BME280;45734;53.648;9.566;2023-04-20T08:04:48;97375.69;;;-145.06;100.00
59859;BME280;45734;53.648;9.566;2023-04-20T08:09:48;97359.31;;;-145.06;100.00
59859;BME280;45734;53.648;9.566;2023-04-20T08:14:49;96820.94;;;-145.06;100.00
59859;BME280;45734;53.648;9.566;2023-04-20T08:19:49;97166.88;;;-145.06;100.00
59859;BME280;45734;53.648;9.566;2023-04-20T08:24:50;96845.50;;;-145.06;100.00
59859;BME280;45734;53.648;9.566;2023-04-20T08:29:50;96943.75;;;-145.06;100.00
59859;BME280;45734;53.648;9.566;2023-04-20T08:34:51;96563.00;;;-145.06;100.00
59859;BME280;45734;53.648;9.566;2023-04-20T08:39:52;97345.00;;;-145.06;100.00
59859;BME280;45734;53.648;9.566;2023-04-20T08:44:53;97410.50;;;-145.06;100.00
59859;BME280;45734;53.648;9.566;2023-04-20T08:49:54;97521.06;;;-145.06;100.00
59859;BME280;45734;53.648;9.566;2023-04-20T08:54:54;97187.34;;;-145.06;100.00
59859;BME280;45734;53.648;9.566;2023-04-20T08:59:55;96581.44;;;-145.06;100.00
59859;BME280;45734;53.648;9.566;2023-04-20T09:05:00;96176.19;;;-145.06;100.00
59859;BME280;45734;53.648;9.566;2023-04-20T09:10:01;96020.63;;;-145.06;100.00
59859;BME280;45734;53.648;9.566;2023-04-20T09:15:01;95940.81;;;-145.06;100.00
59859;BME280;45734;53.648;9.566;2023-04-20T09:20:02;95985.84;;;-145.06;100.00
59859;BME280;45734;53.648;9.566;2023-04-20T09:25:17;95998.13;;;-145.06;100.00
59859;BME280;45734;53.648;9.566;2023-04-20T09:30:18;95826.22;;;-145.06;100.00
59859;BME280;45734;53.648;9.566;2023-04-20T09:35:22;95535.63;;;-145.06;100.00
59859;BME280;45734;53.648;9.566;2023-04-20T09:40:24;95633.84;;;-145.06;100.00
59859;BME280;45734;53.648;9.566;2023-04-20T09:45:25;95676.81;;;-145.06;100.00
59859;BME280;45734;53.648;9.566;2023-04-20T09:50:26;95797.56;;;-145.06;100.00
59859;BME280;45734;53.648;9.566;2023-04-20T09:55:30;95920.34;;;-145.06;100.00
59859;BME280;45734;53.648;9.566;2023-04-20T10:00:30;95899.88;;;-145.06;100.00
59859;BME280;45734;53.648;9.566;2023-04-20T10:05:32;95926.50;;;-145.06;100.00
59859;BME280;45734;53.648;9.566;2023-04-20T10:10:47;95953.09;;;-145.06;100.00
59859;BME280;45734;53.648;9.566;2023-04-20T10:15:47;95552.00;;;-145.06;100.00
59859;BME280;45734;53.648;9.566;2023-04-20T10:20:48;95208.22;;;-145.06;100.00
59859;BME280;45734;53.648;9.566;2023-04-20T10:25:56;95314.63;;;-145.06;100.00
59859;BME280;45734;53.648;9.566;2023-04-20T10:30:57;95200.03;;;-145.06;100.00
59859;BME280;45734;53.648;9.566;2023-04-20T10:35:57;95498.78;;;-145.06;100.00
59859;BME280;45734;53.648;9.566;2023-04-20T10:41:08;95509.03;;;-145.06;100.00
59859;BME280;45734;53.648;9.566;2023-04-20T10:46:17;95609.28;;;-145.06;100.00
59859;BME280;45734;53.648;9.566;2023-04-20T10:51:19;95642.03;;;-145.06;100.00
59859;BME280;45734;53.648;9.566;2023-04-20T10:56:19;95547.91;;;-145.06;100.00
59859;BME280;45734;53.648;9.566;2023-04-20T11:01:20;95519.25;;;-145.06;100.00
59859;BME280;45734;53.648;9.566;2023-04-20T11:06:21;95310.53;;;-145.06;100.00
59859;BME280;45734;53.648;9.566;2023-04-20T11:11:23;95296.22;;;-145.06;100.00
59859;BME280;45734;53.648;9.566;2023-04-20T11:16:24;95490.59;;;-145.06;100.00
59859;BME280;45734;53.648;9.566;2023-04-20T11:21:39;95680.91;;;-145.06;100.00
59859;BME280;45734;53.648;9.566;2023-04-20T11:26:39;95664.53;;;-145.06;100.00
59859;BME280;45734;53.648;9.566;2023-04-20T11:31:40;95711.63;;;-145.06;100.00
59859;BME280;45734;53.648;9.566;2023-04-20T11:36:40;95654.31;;;-145.06;100.00
59859;BME280;45734;53.648;9.566;2023-04-20T11:41:40;95613.38;;;-145.06;100.00
59859;BME280;45734;53.648;9.566;2023-04-20T11:46:41;95682.97;;;-145.06;100.00
59859;BME280;45734;53.648;9.566;2023-04-20T11:51:43;95556.09;;;-145.06;100.00
59859;BME280;45734;53.648;9.566;2023-04-20T11:56:44;95623.63;;;-145.06;100.00
59859;BME280;45734;53.648;9.566;2023-04-20T12:01:45;95566.31;;;-145.06;100.00
59859;BME280;45734;53.648;9.566;2023-04-20T12:06:46;95597.00;;;-145.06;100.00
59859;BME280;45734;53.648;9.566;2023-04-20T12:11:47;95680.91;;;-145.06;100.00
59859;BME280;45734;53.648;9.566;2023-04-20T12:16:47;95736.16;;;-145.06;100.00
59859;BME280;45734;53.648;9.566;2023-04-20T12:21:47;95818.03;;;-145.06;100.00
59859;BME280;45734;53.648;9.566;2023-04-20T12:26:48;95891.69;;;-145.06;100.00
59859;BME280;45734;53.648;9.566;2023-04-20T12:31:48;96075.91;;;-145.06;100.00
59859;BME280;45734;53.648;9.566;2023-04-20T12:36:49;96137.28;;;-145.06;100.00
59859;BME280;45734;53.648;9.566;2023-04-20T12:41:49;96432.03;;;-145.06;100.00
59859;BME280;45734;53.648;9.566;2023-04-20T12:46:49;96317.41;;;-145.06;100.00
59859;BME280;45734;53.648;9.566;2023-04-20T12:51:50;96902.81;;;-145.06;100.00
59859;BME280;45734;53.648;9.566;2023-04-20T12:56:50;96739.06;;;-145.06;100.00
59859;BME280;45734;53.648;9.566;2023-04-20T13:01:50;95946.97;;;-145.06;100.00
59859;BME280;45734;53.648;9.566;2023-04-20T13:06:51;95793.47;;;-145.06;100.00
59859;BME280;45734;53.648;9.566;2023-04-20T13:11:51;95775.06;;;-145.06;100.00
59859;BME280;45734;53.648;9.566;2023-04-20T13:16:52;95621.56;;;-145.06;100.00
59859;BME280;45734;53.648;9.566;2023-04-20T13:21:52;95480.38;;;-145.06;100.00
59859;BME280;45734;53.648;9.566;2023-04-20T13:26:54;95525.38;;;-145.06;100.00
59859;BME280;45734;53.648;9.566;2023-04-20T13:31:57;95490.59;;;-145.06;100.00
59859;BME280;45734;53.648;9.566;2023-04-20T13:36:58;95515.16;;;-145.06;100.00
59859;BME280;45734;53.648;9.566;2023-04-20T13:41:58;95445.59;;;-145.06;100.00
59859;BME280;45734;53.648;9.566;2023-04-20T13:46:58;95410.81;;;-145.06;100.00
59859;BME280;45734;53.648;9.566;2023-04-20T13:51:59;95249.16;;;-145.06;100.00
59859;BME280;45734;53.648;9.566;2023-04-20T13:56:59;95306.44;;;-145.06;100.00
59859;BME280;45734;53.648;9.566;2023-04-20T14:02:00;95498.78;;;-145.06;100.00
59859;BME280;45734;53.648;9.566;2023-04-20T14:07:01;95597.00;;;-145.06;100.00
59859;BME280;45734;53.648;9.566;2023-04-20T14:12:01;95599.06;;;-145.06;100.00
59859;BME280;45734;53.648;9.566;2023-04-20T14:17:02;95640.00;;;-145.06;100.00
59859;BME280;45734;53.648;9.566;2023-04-20T14:22:02;95633.84;;;-145.06;100.00
59859;BME280;45734;53.648;9.566;2023-04-20T14:27:03;95601.09;;;-145.06;100.00
59859;BME280;45734;53.648;9.566;2023-04-20T14:32:03;95615.44;;;-145.06;100.00
59859;BME280;45734;53.648;9.566;2023-04-20T14:37:04;95644.09;;;-145.06;100.00
59859;BME280;45734;53.648;9.566;2023-04-20T14:42:04;95654.31;;;-145.06;100.00
59859;BME280;45734;53.648;9.566;2023-04-20T14:47:05;95615.44;;;-145.06;100.00
59859;BME280;45734;53.648;9.566;2023-04-20T14:52:05;95627.72;;;-145.06;100.00
59859;BME280;45734;53.648;9.566;2023-04-20T14:57:06;95644.09;;;-145.06;100.00
59859;BME280;45734;53.648;9.566;2023-04-20T15:02:06;95599.06;;;-145.06;100.00
59859;BME280;45734;53.648;9.566;2023-04-20T15:07:07;95439.44;;;-145.06;100.00
59859;BME280;45734;53.648;9.566;2023-04-20T15:12:07;95597.00;;;-145.06;100.00
59859;BME280;45734;53.648;9.566;2023-04-20T15:17:07;95527.44;;;-145.06;100.00
59859;BME280;45734;53.648;9.566;2023-04-20T15:22:08;95539.72;;;-145.06;100.00
59859;BME280;45734;53.648;9.566;2023-04-20T15:27:08;95570.41;;;-145.06;100.00
59859;BME280;45734;53.648;9.566;2023-04-20T15:32:08;95486.50;;;-145.06;100.00
59859;BME280;45734;53.648;9.566;2023-04-20T15:37:09;95529.47;;;-145.06;100.00
59859;BME280;45734;53.648;9.566;2023-04-20T15:42:09;95576.56;;;-145.06;100.00
59859;BME280;45734;53.648;9.566;2023-04-20T15:47:10;95588.84;;;-145.06;100.00
59859;BME280;45734;53.648;9.566;2023-04-20T15:52:10;95760.72;;;-145.06;100.00
59859;BME280;45734;53.648;9.566;2023-04-20T15:57:11;95824.16;;;-145.06;100.00
59859;BME280;45734;53.648;9.566;2023-04-20T16:02:11;95672.72;;;-145.06;100.00
59859;BME280;45734;53.648;9.566;2023-04-20T16:07:12;95652.28;;;-145.06;100.00
59859;BME280;45734;53.648;9.566;2023-04-20T16:12:12;95646.13;;;-145.06;100.00
59859;BME280;45734;53.648;9.566;2023-04-20T16:17:13;95613.38;;;-145.06;100.00
59859;BME280;45734;53.648;9.566;2023-04-20T16:22:14;95498.78;;;-145.06;100.00
59859;BME280;45734;53.648;9.566;2023-04-20T16:27:15;95580.66;;;-145.06;100.00
59859;BME280;45734;53.648;9.566;2023-04-20T16:32:15;95576.56;;;-145.06;100.00
59859;BME280;45734;53.648;9.566;2023-04-20T16:37:15;95519.25;;;-145.06;100.00
59859;BME280;45734;53.648;9.566;2023-04-20T16:42:16;95640.00;;;-145.06;100.00
59859;BME280;45734;53.648;9.566;2023-04-20T16:47:16;96022.69;;;-145.06;100.00
59859;BME280;45734;53.648;9.566;2023-04-20T16:52:16;96337.88;;;-145.06;100.00
59859;BME280;45734;53.648;9.566;2023-04-20T16:57:17;96440.22;;;-145.06;100.00
59859;BME280;45734;53.648;9.566;2023-04-20T17:02:17;96260.09;;;-145.06;100.00
59859;BME280;45734;53.648;9.566;2023-04-20T17:07:18;96423.84;;;-145.06;100.00
59859;BME280;45734;53.648;9.566;2023-04-20T17:12:18;96538.47;;;-145.06;100.00
59859;BME280;45734;53.648;9.566;2023-04-20T17:17:18;96606.00;;;-145.06;100.00
59859;BME280;45734;53.648;9.566;2023-04-20T17:22:19;96706.28;;;-145.06;100.00
59859;BME280;45734;53.648;9.566;2023-04-20T17:27:19;96726.78;;;-145.06;100.00
59859;BME280;45734;53.648;9.566;2023-04-20T17:32:20;96790.22;;;-145.06;100.00
59859;BME280;45734;53.648;9.566;2023-04-20T17:37:21;96827.06;;;-145.06;100.00
59859;BME280;45734;53.648;9.566;2023-04-20T17:42:22;96833.22;;;-145.06;100.00
59859;BME280;45734;53.648;9.566;2023-04-20T17:47:22;96777.94;;;-145.06;100.00
59859;BME280;45734;53.648;9.566;2023-04-20T17:52:23;96868.00;;;-145.06;100.00
59859;BME280;45734;53.648;9.566;2023-04-20T17:57:24;96970.38;;;-145.06;100.00
59859;BME280;45734;53.648;9.566;2023-04-20T18:02:25;96888.47;;;-145.06;100.00
59859;BME280;45734;53.648;9.566;2023-04-20T18:07:26;96906.91;;;-145.06;100.00
59859;BME280;45734;53.648;9.566;2023-04-20T18:12:26;96837.31;;;-145.06;100.00
59859;BME280;45734;53.648;9.566;2023-04-20T18:17:27;96925.31;;;-145.06;100.00
59859;BME280;45734;53.648;9.566;2023-04-20T18:22:27;96839.34;;;-145.06;100.00
59859;BME280;45734;53.648;9.566;2023-04-20T18:27:27;96984.69;;;-145.06;100.00
59859;BME280;45734;53.648;9.566;2023-04-20T18:32:28;96927.38;;;-145.06;100.00
59859;BME280;45734;53.648;9.566;2023-04-20T18:37:30;96929.41;;;-145.06;100.00
59859;BME280;45734;53.648;9.566;2023-04-20T18:42:30;96927.38;;;-145.06;100.00
59859;BME280;45734;53.648;9.566;2023-04-20T18:47:30;96980.59;;;-145.06;100.00
59859;BME280;45734;53.648;9.566;2023-04-20T18:52:32;96949.88;;;-145.06;100.00
59859;BME280;45734;53.648;9.566;2023-04-20T18:57:32;96956.03;;;-145.06;100.00
59859;BME280;45734;53.648;9.566;2023-04-20T19:02:33;96976.50;;;-145.06;100.00
59859;BME280;45734;53.648;9.566;2023-04-20T19:07:33;96976.50;;;-145.06;100.00
59859;BME280;45734;53.648;9.566;2023-04-20T19:12:34;96913.03;;;-145.06;100.00
59859;BME280;45734;53.648;9.566;2023-04-20T19:17:37;96954.00;;;-145.06;100.00
59859;BME280;45734;53.648;9.566;2023-04-20T19:22:37;96933.50;;;-145.06;100.00
59859;BME280;45734;53.648;9.566;2023-04-20T19:27:37;96935.56;;;-145.06;100.00
59859;BME280;45734;53.648;9.566;2023-04-20T19:32:38;96939.66;;;-145.06;100.00
59859;BME280;45734;53.648;9.566;2023-04-20T19:37:38;96939.66;;;-145.06;100.00
59859;BME280;45734;53.648;9.566;2023-04-20T19:42:40;96980.59;;;-145.06;100.00
59859;BME280;45734;53.648;9.566;2023-04-20T19:47:41;96945.81;;;-145.06;100.00
59859;BME280;45734;53.648;9.566;2023-04-20T19:52:41;96882.34;;;-145.06;100.00
59859;BME280;45734;53.648;9.566;2023-04-20T19:57:42;96978.56;;;-145.06;100.00
59859;BME280;45734;53.648;9.566;2023-04-20T20:02:48;96947.84;;;-145.06;100.00
59859;BME280;45734;53.648;9.566;2023-04-20T20:07:49;96992.88;;;-145.06;100.00
59859;BME280;45734;53.648;9.566;2023-04-20T20:12:51;96919.19;;;-145.06;100.00
59859;BME280;45734;53.648;9.566;2023-04-20T20:17:51;96972.41;;;-145.06;100.00
59859;BME280;45734;53.648;9.566;2023-04-20T20:22:55;96941.69;;;-145.06;100.00
59859;BME280;45734;53.648;9.566;2023-04-20T20:27:55;96968.31;;;-145.06;100.00
59859;BME280;45734;53.648;9.566;2023-04-20T20:32:56;96941.69;;;-145.06;100.00
59859;BME280;45734;53.648;9.566;2023-04-20T20:37:58;96931.47;;;-145.06;100.00
59859;BME280;45734;53.648;9.566;2023-04-20T20:42:59;97003.13;;;-145.06;100.00
59859;BME280;45734;53.648;9.566;2023-04-20T20:47:59;96943.75;;;-145.06;100.00
59859;BME280;45734;53.648;9.566;2023-04-20T20:53:00;96958.06;;;-145.06;100.00
59859;BME280;45734;53.648;9.566;2023-04-20T20:58:00;96929.41;;;-145.06;100.00
59859;BME280;45734;53.648;9.566;2023-04-20T21:03:01;96958.06;;;-145.06;100.00
59859;BME280;45734;53.648;9.566;2023-04-20T21:08:01;96966.28;;;-145.06;100.00
59859;BME280;45734;53.648;9.566;2023-04-20T21:13:01;96980.59;;;-145.06;100.00
59859;BME280;45734;53.648;9.566;2023-04-20T21:18:03;96933.50;;;-145.06;100.00
59859;BME280;45734;53.648;9.566;2023-04-20T21:23:03;96956.03;;;-145.06;100.00
59859;BME280;45734;53.648;9.566;2023-04-20T21:28:03;96966.28;;;-145.06;100.00
59859;BME280;45734;53.648;9.566;2023-04-20T21:33:04;96861.88;;;-145.06;100.00
59859;BME280;45734;53.648;9.566;2023-04-20T21:38:04;96984.69;;;-145.06;100.00
59859;BME280;45734;53.648;9.566;2023-04-20T21:43:05;97017.44;;;-145.06;100.00
59859;BME280;45734;53.648;9.566;2023-04-20T21:48:06;96937.59;;;-145.06;100.00
59859;BME280;45734;53.648;9.566;2023-04-20T21:53:06;97001.06;;;-145.06;100.00
59859;BME280;45734;53.648;9.566;2023-04-20T21:58:06;97029.72;;;-145.06;100.00
59859;BME280;45734;53.648;9.566;2023-04-20T22:03:07;97017.44;;;-145.06;100.00
59859;BME280;45734;53.648;9.566;2023-04-20T22:08:07;96968.31;;;-145.06;100.00
59859;BME280;45734;53.648;9.566;2023-04-20T22:13:07;96992.88;;;-145.06;100.00
59859;BME280;45734;53.648;9.566;2023-04-20T22:18:08;96886.44;;;-145.06;100.00
59859;BME280;45734;53.648;9.566;2023-04-20T22:23:11;96890.53;;;-145.06;100.00
59859;BME280;45734;53.648;9.566;2023-04-20T22:28:12;96911.00;;;-145.06;100.00
59859;BME280;45734;53.648;9.566;2023-04-20T22:33:12;96882.34;;;-145.06;100.00
59859;BME280;45734;53.648;9.566;2023-04-20T22:38:12;96947.84;;;-145.06;100.00
59859;BME280;45734;53.648;9.566;2023-04-20T22:43:13;96935.56;;;-145.06;100.00
59859;BME280;45734;53.648;9.566;2023-04-20T22:48:13;96906.91;;;-145.06;100.00
59859;BME280;45734;53.648;9.566;2023-04-20T22:53:13;96951.94;;;-145.06;100.00
59859;BME280;45734;53.648;9.566;2023-04-20T22:58:14;96982.66;;;-145.06;100.00
59859;BME280;45734;53.648;9.566;2023-04-20T23:03:14;96972.41;;;-145.06;100.00
59859;BME280;45734;53.648;9.566;2023-04-20T23:08:14;96982.66;;;-145.06;100.00
59859;BME280;45734;53.648;9.566;2023-04-20T23:13:16;96996.97;;;-145.06;100.00
59859;BME280;45734;53.648;9.566;2023-04-20T23:18:17;97001.06;;;-145.06;100.00
59859;BME280;45734;53.648;9.566;2023-04-20T23:23:17;96947.84;;;-145.06;100.00
59859;BME280;45734;53.648;9.566;2023-04-20T23:28:17;96996.97;;;-145.06;100.00
59859;BME280;45734;53.648;9.566;2023-04-20T23:33:18;96898.72;;;-145.06;100.00
59859;BME280;45734;53.648;9.566;2023-04-20T23:38:18;96978.56;;;-145.06;100.00
59859;BME280;45734;53.648;9.566;2023-04-20T23:43:18;96947.84;;;-145.06;100.00
59859;BME280;45734;53.648;9.566;2023-04-20T23:48:20;97025.63;;;-145.06;100.00
59859;BME280;45734;53.648;9.566;2023-04-20T23:53:20;97097.28;;;-145.06;100.00
59859;BME280;45734;53.648;9.566;2023-04-20T23:58:24;97013.34;;;-145.06;100.00
